sensor_id;sensor_type;location;lat;lon;timestamp;P1;durP1;ratioP1;P2;durP2;ratioP2
6131;SDS011;3097;42.692;23.278;2022-11-18T00:01:27;82.73;;;37.70;;
6131;SDS011;3097;42.692;23.278;2022-11-18T00:03:53;78.80;;;37.33;;
6131;SDS011;3097;42.692;23.278;2022-11-18T00:06:19;77.97;;;38.27;;
6131;SDS011;3097;42.692;23.278;2022-11-18T00:08:50;73.07;;;36.87;;
6131;SDS011;3097;42.692;23.278;2022-11-18T00:11:17;80.73;;;36.63;;
6131;SDS011;3097;42.692;23.278;2022-11-18T00:14:04;77.23;;;35.57;;
6131;SDS011;3097;42.692;23.278;2022-11-18T00:16:43;77.70;;;35.03;;
6131;SDS011;3097;42.692;23.278;2022-11-18T00:19:09;74.60;;;36.67;;
6131;SDS011;3097;42.692;23.278;2022-11-18T00:21:34;88.53;;;38.50;;
6131;SDS011;3097;42.692;23.278;2022-11-18T00:23:59;67.07;;;33.70;;
6131;SDS011;3097;42.692;23.278;2022-11-18T00:26:25;69.77;;;34.83;;
6131;SDS011;3097;42.692;23.278;2022-11-18T00:28:50;77.73;;;36.00;;
6131;SDS011;3097;42.692;23.278;2022-11-18T00:31:16;71.57;;;33.93;;
6131;SDS011;3097;42.692;23.278;2022-11-18T00:33:41;66.13;;;31.93;;
6131;SDS011;3097;42.692;23.278;2022-11-18T00:36:08;60.23;;;30.37;;
6131;SDS011;3097;42.692;23.278;2022-11-18T00:38:35;58.53;;;30.83;;
6131;SDS011;3097;42.692;23.278;2022-11-18T00:41:02;63.60;;;31.17;;
6131;SDS011;3097;42.692;23.278;2022-11-18T00:43:29;67.43;;;31.87;;
6131;SDS011;3097;42.692;23.278;2022-11-18T00:45:55;62.97;;;31.10;;
6131;SDS011;3097;42.692;23.278;2022-11-18T00:48:21;67.83;;;31.93;;
6131;SDS011;3097;42.692;23.278;2022-11-18T00:50:50;70.40;;;31.67;;
6131;SDS011;3097;42.692;23.278;2022-11-18T00:53:17;69.73;;;32.40;;
6131;SDS011;3097;42.692;23.278;2022-11-18T00:55:44;64.93;;;32.57;;
6131;SDS011;3097;42.692;23.278;2022-11-18T00:58:10;71.57;;;34.53;;
6131;SDS011;3097;42.692;23.278;2022-11-18T01:00:41;67.13;;;33.47;;
6131;SDS011;3097;42.692;23.278;2022-11-18T01:03:08;71.00;;;33.37;;
6131;SDS011;3097;42.692;23.278;2022-11-18T01:05:35;59.53;;;29.63;;
6131;SDS011;3097;42.692;23.278;2022-11-18T01:08:03;57.20;;;27.40;;
6131;SDS011;3097;42.692;23.278;2022-11-18T01:10:30;49.70;;;25.60;;
6131;SDS011;3097;42.692;23.278;2022-11-18T01:12:55;54.10;;;28.20;;
6131;SDS011;3097;42.692;23.278;2022-11-18T01:15:40;52.40;;;24.53;;
6131;SDS011;3097;42.692;23.278;2022-11-18T01:18:06;48.63;;;25.50;;
6131;SDS011;3097;42.692;23.278;2022-11-18T01:20:32;45.50;;;24.83;;
6131;SDS011;3097;42.692;23.278;2022-11-18T01:22:58;47.37;;;24.20;;
6131;SDS011;3097;42.692;23.278;2022-11-18T01:25:23;47.70;;;22.37;;
6131;SDS011;3097;42.692;23.278;2022-11-18T01:27:49;43.30;;;23.07;;
6131;SDS011;3097;42.692;23.278;2022-11-18T01:30:15;42.20;;;23.60;;
6131;SDS011;3097;42.692;23.278;2022-11-18T01:32:41;46.60;;;24.40;;
6131;SDS011;3097;42.692;23.278;2022-11-18T01:35:07;52.57;;;25.90;;
6131;SDS011;3097;42.692;23.278;2022-11-18T01:37:33;43.50;;;24.07;;
6131;SDS011;3097;42.692;23.278;2022-11-18T01:39:59;47.83;;;23.93;;
6131;SDS011;3097;42.692;23.278;2022-11-18T01:42:25;45.53;;;24.07;;
6131;SDS011;3097;42.692;23.278;2022-11-18T01:47:19;50.73;;;27.37;;
6131;SDS011;3097;42.692;23.278;2022-11-18T01:49:45;53.43;;;27.83;;
6131;SDS011;3097;42.692;23.278;2022-11-18T01:52:11;59.17;;;29.57;;
6131;SDS011;3097;42.692;23.278;2022-11-18T01:54:38;56.77;;;30.43;;
6131;SDS011;3097;42.692;23.278;2022-11-18T01:57:10;56.20;;;30.00;;
6131;SDS011;3097;42.692;23.278;2022-11-18T01:59:41;52.17;;;29.03;;
6131;SDS011;3097;42.692;23.278;2022-11-18T02:02:11;48.17;;;24.60;;
6131;SDS011;3097;42.692;23.278;2022-11-18T02:04:39;47.23;;;24.50;;
6131;SDS011;3097;42.692;23.278;2022-11-18T02:07:08;42.47;;;22.63;;
6131;SDS011;3097;42.692;23.278;2022-11-18T02:09:35;38.70;;;20.80;;
6131;SDS011;3097;42.692;23.278;2022-11-18T02:12:02;40.57;;;18.83;;
6131;SDS011;3097;42.692;23.278;2022-11-18T02:14:31;36.57;;;19.50;;
6131;SDS011;3097;42.692;23.278;2022-11-18T02:25:03;36.67;;;19.10;;
6131;SDS011;3097;42.692;23.278;2022-11-18T02:30:22;33.80;;;17.97;;
6131;SDS011;3097;42.692;23.278;2022-11-18T02:33:06;34.10;;;18.90;;
6131;SDS011;3097;42.692;23.278;2022-11-18T02:38:30;34.23;;;19.20;;
6131;SDS011;3097;42.692;23.278;2022-11-18T02:41:03;38.33;;;21.90;;
6131;SDS011;3097;42.692;23.278;2022-11-18T02:43:34;41.80;;;23.10;;
6131;SDS011;3097;42.692;23.278;2022-11-18T02:46:09;42.40;;;22.17;;
6131;SDS011;3097;42.692;23.278;2022-11-18T02:48:40;47.93;;;24.40;;
6131;SDS011;3097;42.692;23.278;2022-11-18T02:51:10;43.67;;;22.93;;
6131;SDS011;3097;42.692;23.278;2022-11-18T02:53:37;47.07;;;25.90;;
6131;SDS011;3097;42.692;23.278;2022-11-18T02:56:05;49.57;;;25.47;;
6131;SDS011;3097;42.692;23.278;2022-11-18T02:58:33;44.43;;;23.87;;
6131;SDS011;3097;42.692;23.278;2022-11-18T03:00:59;44.07;;;24.10;;
6131;SDS011;3097;42.692;23.278;2022-11-18T03:06:41;55.33;;;27.23;;
6131;SDS011;3097;42.692;23.278;2022-11-18T03:09:10;52.97;;;26.27;;
6131;SDS011;3097;42.692;23.278;2022-11-18T03:14:08;61.73;;;29.43;;
6131;SDS011;3097;42.692;23.278;2022-11-18T03:16:41;64.97;;;32.97;;
6131;SDS011;3097;42.692;23.278;2022-11-18T03:19:19;63.20;;;31.50;;
6131;SDS011;3097;42.692;23.278;2022-11-18T03:21:59;61.30;;;31.20;;
6131;SDS011;3097;42.692;23.278;2022-11-18T03:24:32;51.93;;;26.07;;
6131;SDS011;3097;42.692;23.278;2022-11-18T03:27:08;58.03;;;29.27;;
6131;SDS011;3097;42.692;23.278;2022-11-18T03:29:40;60.00;;;30.53;;
6131;SDS011;3097;42.692;23.278;2022-11-18T03:32:13;52.40;;;26.77;;
6131;SDS011;3097;42.692;23.278;2022-11-18T03:34:45;64.23;;;31.10;;
6131;SDS011;3097;42.692;23.278;2022-11-18T03:37:13;57.27;;;29.63;;
6131;SDS011;3097;42.692;23.278;2022-11-18T03:39:42;75.20;;;35.33;;
6131;SDS011;3097;42.692;23.278;2022-11-18T03:44:51;63.00;;;31.87;;
6131;SDS011;3097;42.692;23.278;2022-11-18T03:47:26;63.53;;;32.13;;
6131;SDS011;3097;42.692;23.278;2022-11-18T03:49:57;57.07;;;28.77;;
6131;SDS011;3097;42.692;23.278;2022-11-18T03:52:28;59.37;;;31.20;;
6131;SDS011;3097;42.692;23.278;2022-11-18T03:54:58;76.37;;;35.67;;
6131;SDS011;3097;42.692;23.278;2022-11-18T04:00:06;50.20;;;25.70;;
6131;SDS011;3097;42.692;23.278;2022-11-18T04:02:36;48.43;;;25.37;;
6131;SDS011;3097;42.692;23.278;2022-11-18T04:05:03;61.83;;;30.10;;
6131;SDS011;3097;42.692;23.278;2022-11-18T04:10:12;69.73;;;32.37;;
6131;SDS011;3097;42.692;23.278;2022-11-18T04:12:48;62.10;;;30.47;;
6131;SDS011;3097;42.692;23.278;2022-11-18T04:15:23;68.00;;;30.20;;
6131;SDS011;3097;42.692;23.278;2022-11-18T04:17:49;65.70;;;29.93;;
6131;SDS011;3097;42.692;23.278;2022-11-18T04:20:16;63.80;;;30.17;;
6131;SDS011;3097;42.692;23.278;2022-11-18T04:22:45;63.97;;;30.53;;
6131;SDS011;3097;42.692;23.278;2022-11-18T04:25:11;51.93;;;26.03;;
6131;SDS011;3097;42.692;23.278;2022-11-18T04:27:36;63.00;;;29.23;;
6131;SDS011;3097;42.692;23.278;2022-11-18T04:30:03;66.90;;;29.57;;
6131;SDS011;3097;42.692;23.278;2022-11-18T04:32:29;54.27;;;25.20;;
6131;SDS011;3097;42.692;23.278;2022-11-18T04:34:55;54.20;;;26.27;;
6131;SDS011;3097;42.692;23.278;2022-11-18T04:37:20;58.60;;;27.13;;
6131;SDS011;3097;42.692;23.278;2022-11-18T04:39:46;52.10;;;25.30;;
6131;SDS011;3097;42.692;23.278;2022-11-18T04:42:11;55.37;;;24.90;;
6131;SDS011;3097;42.692;23.278;2022-11-18T04:44:37;48.97;;;23.53;;
6131;SDS011;3097;42.692;23.278;2022-11-18T04:47:03;50.00;;;23.33;;
6131;SDS011;3097;42.692;23.278;2022-11-18T04:49:30;48.77;;;21.63;;
6131;SDS011;3097;42.692;23.278;2022-11-18T04:51:56;49.50;;;22.97;;
6131;SDS011;3097;42.692;23.278;2022-11-18T04:54:22;43.70;;;21.57;;
6131;SDS011;3097;42.692;23.278;2022-11-18T04:56:49;49.83;;;23.37;;
6131;SDS011;3097;42.692;23.278;2022-11-18T04:59:15;51.03;;;22.80;;
6131;SDS011;3097;42.692;23.278;2022-11-18T05:01:43;48.43;;;21.50;;
6131;SDS011;3097;42.692;23.278;2022-11-18T05:04:11;50.07;;;22.97;;
6131;SDS011;3097;42.692;23.278;2022-11-18T05:06:38;48.90;;;23.77;;
6131;SDS011;3097;42.692;23.278;2022-11-18T05:09:03;51.67;;;24.57;;
6131;SDS011;3097;42.692;23.278;2022-11-18T05:11:28;52.20;;;24.97;;
6131;SDS011;3097;42.692;23.278;2022-11-18T05:14:12;54.10;;;24.70;;
6131;SDS011;3097;42.692;23.278;2022-11-18T05:16:38;55.57;;;25.70;;
6131;SDS011;3097;42.692;23.278;2022-11-18T05:19:04;55.13;;;24.50;;
6131;SDS011;3097;42.692;23.278;2022-11-18T05:21:30;50.23;;;23.50;;
6131;SDS011;3097;42.692;23.278;2022-11-18T05:23:57;48.20;;;23.50;;
6131;SDS011;3097;42.692;23.278;2022-11-18T05:26:23;46.80;;;21.27;;
6131;SDS011;3097;42.692;23.278;2022-11-18T05:28:49;48.40;;;24.07;;
6131;SDS011;3097;42.692;23.278;2022-11-18T05:31:14;48.63;;;23.80;;
6131;SDS011;3097;42.692;23.278;2022-11-18T05:33:41;49.80;;;22.83;;
6131;SDS011;3097;42.692;23.278;2022-11-18T05:36:14;47.53;;;23.27;;
6131;SDS011;3097;42.692;23.278;2022-11-18T05:38:42;46.93;;;22.87;;
6131;SDS011;3097;42.692;23.278;2022-11-18T05:41:08;49.80;;;22.00;;
6131;SDS011;3097;42.692;23.278;2022-11-18T05:43:34;43.37;;;22.20;;
6131;SDS011;3097;42.692;23.278;2022-11-18T05:46:01;44.40;;;21.83;;
6131;SDS011;3097;42.692;23.278;2022-11-18T05:48:27;56.27;;;22.60;;
6131;SDS011;3097;42.692;23.278;2022-11-18T05:50:53;46.73;;;23.53;;
6131;SDS011;3097;42.692;23.278;2022-11-18T05:53:20;48.80;;;22.80;;
6131;SDS011;3097;42.692;23.278;2022-11-18T05:55:56;51.73;;;22.77;;
6131;SDS011;3097;42.692;23.278;2022-11-18T05:58:31;49.13;;;21.30;;
6131;SDS011;3097;42.692;23.278;2022-11-18T06:00:58;45.67;;;21.93;;
6131;SDS011;3097;42.692;23.278;2022-11-18T06:03:29;42.60;;;21.27;;
6131;SDS011;3097;42.692;23.278;2022-11-18T06:05:58;43.90;;;21.47;;
6131;SDS011;3097;42.692;23.278;2022-11-18T06:08:28;43.27;;;20.83;;
6131;SDS011;3097;42.692;23.278;2022-11-18T06:10:57;46.97;;;21.30;;
6131;SDS011;3097;42.692;23.278;2022-11-18T06:13:29;39.70;;;20.23;;
6131;SDS011;3097;42.692;23.278;2022-11-18T06:16:01;43.50;;;20.90;;
6131;SDS011;3097;42.692;23.278;2022-11-18T06:18:27;35.27;;;16.63;;
6131;SDS011;3097;42.692;23.278;2022-11-18T06:20:55;35.87;;;16.73;;
6131;SDS011;3097;42.692;23.278;2022-11-18T06:23:25;30.23;;;15.57;;
6131;SDS011;3097;42.692;23.278;2022-11-18T06:25:53;32.23;;;15.80;;
6131;SDS011;3097;42.692;23.278;2022-11-18T06:28:19;36.60;;;16.30;;
6131;SDS011;3097;42.692;23.278;2022-11-18T06:30:45;31.87;;;15.60;;
6131;SDS011;3097;42.692;23.278;2022-11-18T06:33:11;31.93;;;14.90;;
6131;SDS011;3097;42.692;23.278;2022-11-18T06:35:36;34.77;;;16.50;;
6131;SDS011;3097;42.692;23.278;2022-11-18T06:38:02;36.20;;;15.37;;
6131;SDS011;3097;42.692;23.278;2022-11-18T06:40:27;37.60;;;17.10;;
6131;SDS011;3097;42.692;23.278;2022-11-18T06:42:53;37.60;;;17.97;;
6131;SDS011;3097;42.692;23.278;2022-11-18T06:45:37;34.50;;;16.53;;
6131;SDS011;3097;42.692;23.278;2022-11-18T06:48:02;32.70;;;16.47;;
6131;SDS011;3097;42.692;23.278;2022-11-18T06:50:28;34.60;;;15.70;;
6131;SDS011;3097;42.692;23.278;2022-11-18T06:52:55;39.53;;;17.03;;
6131;SDS011;3097;42.692;23.278;2022-11-18T06:55:23;41.23;;;17.90;;
6131;SDS011;3097;42.692;23.278;2022-11-18T06:57:48;41.40;;;18.23;;
6131;SDS011;3097;42.692;23.278;2022-11-18T07:00:14;40.43;;;17.67;;
6131;SDS011;3097;42.692;23.278;2022-11-18T07:02:40;40.17;;;18.37;;
6131;SDS011;3097;42.692;23.278;2022-11-18T07:05:05;38.40;;;17.17;;
6131;SDS011;3097;42.692;23.278;2022-11-18T07:07:33;39.13;;;18.43;;
6131;SDS011;3097;42.692;23.278;2022-11-18T07:09:59;38.07;;;17.17;;
6131;SDS011;3097;42.692;23.278;2022-11-18T07:12:24;36.40;;;16.70;;
6131;SDS011;3097;42.692;23.278;2022-11-18T07:14:50;31.67;;;16.07;;
6131;SDS011;3097;42.692;23.278;2022-11-18T07:17:15;39.13;;;15.53;;
6131;SDS011;3097;42.692;23.278;2022-11-18T07:19:41;34.07;;;15.37;;
6131;SDS011;3097;42.692;23.278;2022-11-18T07:22:06;39.23;;;16.77;;
6131;SDS011;3097;42.692;23.278;2022-11-18T07:24:32;41.17;;;16.07;;
6131;SDS011;3097;42.692;23.278;2022-11-18T07:26:58;35.27;;;16.33;;
6131;SDS011;3097;42.692;23.278;2022-11-18T07:29:23;40.47;;;17.13;;
6131;SDS011;3097;42.692;23.278;2022-11-18T07:31:49;37.07;;;17.00;;
6131;SDS011;3097;42.692;23.278;2022-11-18T07:34:14;34.50;;;15.53;;
6131;SDS011;3097;42.692;23.278;2022-11-18T07:36:39;31.10;;;15.43;;
6131;SDS011;3097;42.692;23.278;2022-11-18T07:39:05;39.10;;;15.87;;
6131;SDS011;3097;42.692;23.278;2022-11-18T07:41:31;37.13;;;15.63;;
6131;SDS011;3097;42.692;23.278;2022-11-18T07:43:59;34.90;;;16.30;;
6131;SDS011;3097;42.692;23.278;2022-11-18T07:46:27;40.93;;;17.33;;
6131;SDS011;3097;42.692;23.278;2022-11-18T07:48:53;43.30;;;17.00;;
6131;SDS011;3097;42.692;23.278;2022-11-18T07:51:20;38.70;;;16.50;;
6131;SDS011;3097;42.692;23.278;2022-11-18T07:53:48;41.77;;;17.47;;
6131;SDS011;3097;42.692;23.278;2022-11-18T07:56:14;39.33;;;16.97;;
6131;SDS011;3097;42.692;23.278;2022-11-18T07:58:40;31.73;;;16.23;;
6131;SDS011;3097;42.692;23.278;2022-11-18T08:01:07;37.37;;;15.47;;
6131;SDS011;3097;42.692;23.278;2022-11-18T08:03:34;36.27;;;16.07;;
6131;SDS011;3097;42.692;23.278;2022-11-18T08:06:00;36.13;;;15.77;;
6131;SDS011;3097;42.692;23.278;2022-11-18T08:08:27;34.63;;;15.47;;
6131;SDS011;3097;42.692;23.278;2022-11-18T08:10:56;35.77;;;16.53;;
6131;SDS011;3097;42.692;23.278;2022-11-18T08:13:23;34.03;;;16.83;;
6131;SDS011;3097;42.692;23.278;2022-11-18T08:15:49;37.13;;;17.07;;
6131;SDS011;3097;42.692;23.278;2022-11-18T08:18:16;40.50;;;17.87;;
6131;SDS011;3097;42.692;23.278;2022-11-18T08:20:41;39.10;;;17.93;;
6131;SDS011;3097;42.692;23.278;2022-11-18T08:23:09;44.57;;;18.53;;
6131;SDS011;3097;42.692;23.278;2022-11-18T08:25:34;49.60;;;19.10;;
6131;SDS011;3097;42.692;23.278;2022-11-18T08:27:59;40.60;;;18.40;;
6131;SDS011;3097;42.692;23.278;2022-11-18T08:30:26;48.37;;;18.80;;
6131;SDS011;3097;42.692;23.278;2022-11-18T08:32:51;43.10;;;17.97;;
6131;SDS011;3097;42.692;23.278;2022-11-18T08:35:17;49.27;;;20.03;;
6131;SDS011;3097;42.692;23.278;2022-11-18T08:37:42;44.17;;;18.90;;
6131;SDS011;3097;42.692;23.278;2022-11-18T08:40:08;45.73;;;20.13;;
6131;SDS011;3097;42.692;23.278;2022-11-18T08:42:33;47.30;;;20.87;;
6131;SDS011;3097;42.692;23.278;2022-11-18T08:44:59;49.97;;;19.70;;
6131;SDS011;3097;42.692;23.278;2022-11-18T08:47:24;46.40;;;19.20;;
6131;SDS011;3097;42.692;23.278;2022-11-18T08:49:50;45.30;;;19.47;;
6131;SDS011;3097;42.692;23.278;2022-11-18T08:52:15;48.67;;;18.33;;
6131;SDS011;3097;42.692;23.278;2022-11-18T08:54:40;47.63;;;18.87;;
6131;SDS011;3097;42.692;23.278;2022-11-18T08:57:06;46.23;;;18.67;;
6131;SDS011;3097;42.692;23.278;2022-11-18T08:59:32;44.90;;;18.90;;
6131;SDS011;3097;42.692;23.278;2022-11-18T09:01:58;51.17;;;20.50;;
6131;SDS011;3097;42.692;23.278;2022-11-18T09:04:24;55.33;;;20.90;;
6131;SDS011;3097;42.692;23.278;2022-11-18T09:06:49;58.10;;;21.60;;
6131;SDS011;3097;42.692;23.278;2022-11-18T09:09:15;53.30;;;20.87;;
6131;SDS011;3097;42.692;23.278;2022-11-18T09:11:40;51.93;;;19.93;;
6131;SDS011;3097;42.692;23.278;2022-11-18T09:14:06;54.43;;;19.77;;
6131;SDS011;3097;42.692;23.278;2022-11-18T09:16:34;53.07;;;21.63;;
6131;SDS011;3097;42.692;23.278;2022-11-18T09:19:00;45.97;;;20.30;;
6131;SDS011;3097;42.692;23.278;2022-11-18T09:21:26;44.40;;;18.60;;
6131;SDS011;3097;42.692;23.278;2022-11-18T09:23:51;47.57;;;19.10;;
6131;SDS011;3097;42.692;23.278;2022-11-18T09:26:18;46.47;;;19.80;;
6131;SDS011;3097;42.692;23.278;2022-11-18T09:28:48;40.07;;;18.47;;
6131;SDS011;3097;42.692;23.278;2022-11-18T09:31:16;49.63;;;20.57;;
6131;SDS011;3097;42.692;23.278;2022-11-18T09:33:43;45.63;;;18.57;;
6131;SDS011;3097;42.692;23.278;2022-11-18T09:36:12;45.00;;;17.53;;
6131;SDS011;3097;42.692;23.278;2022-11-18T09:38:42;39.77;;;17.33;;
6131;SDS011;3097;42.692;23.278;2022-11-18T09:49:02;33.93;;;16.80;;
6131;SDS011;3097;42.692;23.278;2022-11-18T09:51:39;35.70;;;17.63;;
6131;SDS011;3097;42.692;23.278;2022-11-18T09:54:10;37.60;;;17.60;;
6131;SDS011;3097;42.692;23.278;2022-11-18T09:56:47;39.77;;;18.30;;
6131;SDS011;3097;42.692;23.278;2022-11-18T09:59:14;35.47;;;18.00;;
6131;SDS011;3097;42.692;23.278;2022-11-18T10:01:43;42.20;;;19.90;;
6131;SDS011;3097;42.692;23.278;2022-11-18T10:04:12;39.47;;;18.90;;
6131;SDS011;3097;42.692;23.278;2022-11-18T10:06:39;45.70;;;19.90;;
6131;SDS011;3097;42.692;23.278;2022-11-18T10:11:48;43.20;;;19.13;;
6131;SDS011;3097;42.692;23.278;2022-11-18T10:20:12;41.30;;;19.33;;
6131;SDS011;3097;42.692;23.278;2022-11-18T10:25:33;39.43;;;18.13;;
6131;SDS011;3097;42.692;23.278;2022-11-18T10:28:05;40.70;;;17.60;;
6131;SDS011;3097;42.692;23.278;2022-11-18T10:30:39;35.07;;;17.27;;
6131;SDS011;3097;42.692;23.278;2022-11-18T10:33:24;36.93;;;18.77;;
6131;SDS011;3097;42.692;23.278;2022-11-18T10:36:13;42.73;;;19.13;;
6131;SDS011;3097;42.692;23.278;2022-11-18T10:38:51;37.33;;;19.17;;
6131;SDS011;3097;42.692;23.278;2022-11-18T10:41:31;41.57;;;20.53;;
6131;SDS011;3097;42.692;23.278;2022-11-18T10:44:03;35.37;;;17.90;;
6131;SDS011;3097;42.692;23.278;2022-11-18T10:46:30;35.73;;;17.53;;
6131;SDS011;3097;42.692;23.278;2022-11-18T10:52:23;32.07;;;16.53;;
6131;SDS011;3097;42.692;23.278;2022-11-18T10:54:39;31.43;;;15.47;;
6131;SDS011;3097;42.692;23.278;2022-11-18T11:04:56;29.97;;;16.17;;
6131;SDS011;3097;42.692;23.278;2022-11-18T11:07:24;30.87;;;16.80;;
6131;SDS011;3097;42.692;23.278;2022-11-18T11:12:26;31.97;;;17.00;;
6131;SDS011;3097;42.692;23.278;2022-11-18T11:14:55;37.73;;;18.40;;
6131;SDS011;3097;42.692;23.278;2022-11-18T11:17:32;35.13;;;19.03;;
6131;SDS011;3097;42.692;23.278;2022-11-18T11:20:22;39.83;;;21.13;;
6131;SDS011;3097;42.692;23.278;2022-11-18T11:22:48;39.70;;;20.23;;
6131;SDS011;3097;42.692;23.278;2022-11-18T11:25:26;45.43;;;21.67;;
6131;SDS011;3097;42.692;23.278;2022-11-18T11:33:36;40.87;;;21.03;;
6131;SDS011;3097;42.692;23.278;2022-11-18T11:36:35;56.90;;;27.40;;
6131;SDS011;3097;42.692;23.278;2022-11-18T11:39:22;41.40;;;21.20;;
6131;SDS011;3097;42.692;23.278;2022-11-18T11:42:12;41.07;;;19.60;;
6131;SDS011;3097;42.692;23.278;2022-11-18T11:44:57;38.63;;;20.70;;
6131;SDS011;3097;42.692;23.278;2022-11-18T11:56:14;38.47;;;19.07;;
6131;SDS011;3097;42.692;23.278;2022-11-18T12:07:18;25.13;;;14.97;;
6131;SDS011;3097;42.692;23.278;2022-11-18T12:15:25;37.27;;;16.03;;
6131;SDS011;3097;42.692;23.278;2022-11-18T12:20:47;31.97;;;15.37;;
6131;SDS011;3097;42.692;23.278;2022-11-18T12:23:15;28.07;;;15.40;;
6131;SDS011;3097;42.692;23.278;2022-11-18T12:25:49;26.07;;;14.43;;
6131;SDS011;3097;42.692;23.278;2022-11-18T12:28:30;27.97;;;14.73;;
6131;SDS011;3097;42.692;23.278;2022-11-18T12:34:04;19.57;;;12.50;;
6131;SDS011;3097;42.692;23.278;2022-11-18T12:36:41;26.70;;;13.67;;
6131;SDS011;3097;42.692;23.278;2022-11-18T12:41:56;26.23;;;13.70;;
6131;SDS011;3097;42.692;23.278;2022-11-18T12:44:43;22.23;;;10.03;;
6131;SDS011;3097;42.692;23.278;2022-11-18T12:50:09;24.53;;;14.07;;
6131;SDS011;3097;42.692;23.278;2022-11-18T12:55:02;26.40;;;15.17;;
6131;SDS011;3097;42.692;23.278;2022-11-18T12:57:39;26.87;;;14.90;;
6131;SDS011;3097;42.692;23.278;2022-11-18T13:00:15;23.63;;;13.87;;
6131;SDS011;3097;42.692;23.278;2022-11-18T13:02:50;24.13;;;13.53;;
6131;SDS011;3097;42.692;23.278;2022-11-18T13:05:21;27.00;;;14.17;;
6131;SDS011;3097;42.692;23.278;2022-11-18T13:07:50;18.63;;;11.47;;
6131;SDS011;3097;42.692;23.278;2022-11-18T13:10:38;10.50;;;6.53;;
6131;SDS011;3097;42.692;23.278;2022-11-18T13:13:18;5.07;;;4.10;;
6131;SDS011;3097;42.692;23.278;2022-11-18T13:15:45;7.43;;;4.90;;
6131;SDS011;3097;42.692;23.278;2022-11-18T13:18:30;3.13;;;2.83;;
6131;SDS011;3097;42.692;23.278;2022-11-18T13:20:56;4.23;;;2.30;;
6131;SDS011;3097;42.692;23.278;2022-11-18T13:23:48;4.10;;;2.67;;
6131;SDS011;3097;42.692;23.278;2022-11-18T13:28:46;1.83;;;1.73;;
6131;SDS011;3097;42.692;23.278;2022-11-18T13:34:26;2.30;;;2.10;;
6131;SDS011;3097;42.692;23.278;2022-11-18T13:36:54;1.83;;;1.70;;
6131;SDS011;3097;42.692;23.278;2022-11-18T13:42:02;2.17;;;1.63;;
6131;SDS011;3097;42.692;23.278;2022-11-18T13:44:36;1.40;;;1.30;;
6131;SDS011;3097;42.692;23.278;2022-11-18T13:47:07;2.07;;;1.90;;
6131;SDS011;3097;42.692;23.278;2022-11-18T13:49:48;1.77;;;1.63;;
6131;SDS011;3097;42.692;23.278;2022-11-18T13:52:26;2.73;;;2.10;;
6131;SDS011;3097;42.692;23.278;2022-11-18T13:54:56;3.37;;;1.80;;
6131;SDS011;3097;42.692;23.278;2022-11-18T13:57:24;1.43;;;1.33;;
6131;SDS011;3097;42.692;23.278;2022-11-18T13:59:52;2.10;;;1.90;;
6131;SDS011;3097;42.692;23.278;2022-11-18T14:02:21;1.97;;;1.87;;
6131;SDS011;3097;42.692;23.278;2022-11-18T14:04:51;1.70;;;1.60;;
6131;SDS011;3097;42.692;23.278;2022-11-18T14:10:07;2.50;;;1.70;;
6131;SDS011;3097;42.692;23.278;2022-11-18T14:12:36;3.03;;;2.77;;
6131;SDS011;3097;42.692;23.278;2022-11-18T14:15:12;3.90;;;2.70;;
6131;SDS011;3097;42.692;23.278;2022-11-18T14:17:53;2.60;;;2.40;;
6131;SDS011;3097;42.692;23.278;2022-11-18T14:20:21;3.97;;;3.20;;
6131;SDS011;3097;42.692;23.278;2022-11-18T14:22:52;2.60;;;2.40;;
6131;SDS011;3097;42.692;23.278;2022-11-18T14:27:57;1.70;;;1.60;;
6131;SDS011;3097;42.692;23.278;2022-11-18T14:30:36;3.97;;;2.43;;
6131;SDS011;3097;42.692;23.278;2022-11-18T14:33:10;1.80;;;1.70;;
6131;SDS011;3097;42.692;23.278;2022-11-18T14:35:50;2.00;;;1.90;;
6131;SDS011;3097;42.692;23.278;2022-11-18T14:38:18;1.93;;;1.83;;
6131;SDS011;3097;42.692;23.278;2022-11-18T14:40:46;1.97;;;1.87;;
6131;SDS011;3097;42.692;23.278;2022-11-18T14:43:18;2.33;;;2.13;;
6131;SDS011;3097;42.692;23.278;2022-11-18T14:45:45;2.73;;;2.53;;
6131;SDS011;3097;42.692;23.278;2022-11-18T14:48:10;3.93;;;3.50;;
6131;SDS011;3097;42.692;23.278;2022-11-18T14:50:39;3.40;;;2.27;;
6131;SDS011;3097;42.692;23.278;2022-11-18T14:53:04;1.83;;;1.73;;
6131;SDS011;3097;42.692;23.278;2022-11-18T14:55:29;3.00;;;2.20;;
6131;SDS011;3097;42.692;23.278;2022-11-18T14:57:55;7.27;;;4.10;;
6131;SDS011;3097;42.692;23.278;2022-11-18T15:00:20;2.60;;;2.40;;
6131;SDS011;3097;42.692;23.278;2022-11-18T15:02:46;1.40;;;1.40;;
6131;SDS011;3097;42.692;23.278;2022-11-18T15:05:11;2.23;;;1.70;;
6131;SDS011;3097;42.692;23.278;2022-11-18T15:07:36;3.13;;;1.93;;
6131;SDS011;3097;42.692;23.278;2022-11-18T15:10:02;1.87;;;1.77;;
6131;SDS011;3097;42.692;23.278;2022-11-18T15:12:28;2.03;;;1.93;;
6131;SDS011;3097;42.692;23.278;2022-11-18T15:14:53;2.27;;;1.67;;
6131;SDS011;3097;42.692;23.278;2022-11-18T15:17:18;2.10;;;2.00;;
6131;SDS011;3097;42.692;23.278;2022-11-18T15:19:44;2.60;;;2.40;;
6131;SDS011;3097;42.692;23.278;2022-11-18T15:22:09;2.70;;;2.50;;
6131;SDS011;3097;42.692;23.278;2022-11-18T15:24:35;5.00;;;2.80;;
6131;SDS011;3097;42.692;23.278;2022-11-18T15:27:00;4.53;;;4.13;;
6131;SDS011;3097;42.692;23.278;2022-11-18T15:29:29;4.77;;;4.37;;
6131;SDS011;3097;42.692;23.278;2022-11-18T15:31:55;6.10;;;5.30;;
6131;SDS011;3097;42.692;23.278;2022-11-18T15:34:20;6.60;;;5.40;;
6131;SDS011;3097;42.692;23.278;2022-11-18T15:36:46;9.77;;;5.87;;
6131;SDS011;3097;42.692;23.278;2022-11-18T15:39:11;5.70;;;5.00;;
6131;SDS011;3097;42.692;23.278;2022-11-18T15:41:38;5.23;;;4.80;;
6131;SDS011;3097;42.692;23.278;2022-11-18T15:44:04;6.83;;;4.73;;
6131;SDS011;3097;42.692;23.278;2022-11-18T15:46:30;10.57;;;6.60;;
6131;SDS011;3097;42.692;23.278;2022-11-18T15:48:57;12.10;;;7.77;;
6131;SDS011;3097;42.692;23.278;2022-11-18T15:51:25;9.87;;;7.70;;
6131;SDS011;3097;42.692;23.278;2022-11-18T15:53:52;5.37;;;4.73;;
6131;SDS011;3097;42.692;23.278;2022-11-18T15:59:04;4.57;;;3.73;;
6131;SDS011;3097;42.692;23.278;2022-11-18T16:01:31;5.93;;;5.40;;
6131;SDS011;3097;42.692;23.278;2022-11-18T16:03:58;4.40;;;4.00;;
6131;SDS011;3097;42.692;23.278;2022-11-18T16:06:24;5.40;;;3.93;;
6131;SDS011;3097;42.692;23.278;2022-11-18T16:08:49;4.47;;;4.07;;
6131;SDS011;3097;42.692;23.278;2022-11-18T16:11:16;3.33;;;3.00;;
6131;SDS011;3097;42.692;23.278;2022-11-18T16:16:27;5.73;;;4.70;;
6131;SDS011;3097;42.692;23.278;2022-11-18T16:18:57;7.73;;;5.93;;
6131;SDS011;3097;42.692;23.278;2022-11-18T16:21:24;40.13;;;20.90;;
6131;SDS011;3097;42.692;23.278;2022-11-18T16:23:57;88.63;;;43.83;;
6131;SDS011;3097;42.692;23.278;2022-11-18T16:26:24;103.40;;;51.13;;
6131;SDS011;3097;42.692;23.278;2022-11-18T16:28:50;49.60;;;28.30;;
6131;SDS011;3097;42.692;23.278;2022-11-18T16:31:16;17.23;;;12.30;;
6131;SDS011;3097;42.692;23.278;2022-11-18T16:34:08;62.03;;;35.97;;
6131;SDS011;3097;42.692;23.278;2022-11-18T16:36:35;33.33;;;19.03;;
6131;SDS011;3097;42.692;23.278;2022-11-18T16:39:06;17.87;;;11.60;;
6131;SDS011;3097;42.692;23.278;2022-11-18T16:41:33;19.50;;;12.60;;
6131;SDS011;3097;42.692;23.278;2022-11-18T16:43:59;14.90;;;10.00;;
6131;SDS011;3097;42.692;23.278;2022-11-18T16:46:28;14.30;;;10.00;;
6131;SDS011;3097;42.692;23.278;2022-11-18T16:48:55;23.17;;;14.40;;
6131;SDS011;3097;42.692;23.278;2022-11-18T16:51:22;22.20;;;13.83;;
6131;SDS011;3097;42.692;23.278;2022-11-18T16:53:53;14.27;;;9.80;;
6131;SDS011;3097;42.692;23.278;2022-11-18T16:56:22;12.40;;;8.20;;